sensor_id;sensor_type;location;lat;lon;timestamp;temperature;humidity
12130;DHT22;6128;59.340;18.040;2023-03-17T00:01:09;1.20;99.10
12130;DHT22;6128;59.340;18.040;2023-03-17T00:03:38;1.10;99.40
12130;DHT22;6128;59.340;18.040;2023-03-17T00:06:08;1.10;99.60
12130;DHT22;6128;59.340;18.040;2023-03-17T00:08:39;1.10;99.70
12130;DHT22;6128;59.340;18.040;2023-03-17T00:11:11;1.10;99.80
12130;DHT22;6128;59.340;18.040;2023-03-17T00:13:38;1.00;99.90
12130;DHT22;6128;59.340;18.040;2023-03-17T00:16:12;1.00;99.90
12130;DHT22;6128;59.340;18.040;2023-03-17T00:18:41;1.00;99.90
12130;DHT22;6128;59.340;18.040;2023-03-17T00:21:11;1.00;99.90
12130;DHT22;6128;59.340;18.040;2023-03-17T00:23:39;1.00;99.90
12130;DHT22;6128;59.340;18.040;2023-03-17T00:26:09;1.00;99.90
12130;DHT22;6128;59.340;18.040;2023-03-17T00:28:37;0.90;99.90
12130;DHT22;6128;59.340;18.040;2023-03-17T00:31:12;0.90;99.90
12130;DHT22;6128;59.340;18.040;2023-03-17T00:33:40;0.90;99.90
12130;DHT22;6128;59.340;18.040;2023-03-17T00:36:11;0.90;99.90
12130;DHT22;6128;59.340;18.040;2023-03-17T00:38:41;0.90;99.90
12130;DHT22;6128;59.340;18.040;2023-03-17T00:41:11;0.90;99.90
12130;DHT22;6128;59.340;18.040;2023-03-17T00:43:38;0.90;99.90
12130;DHT22;6128;59.340;18.040;2023-03-17T00:46:10;0.90;99.90
12130;DHT22;6128;59.340;18.040;2023-03-17T00:48:38;0.90;99.90
12130;DHT22;6128;59.340;18.040;2023-03-17T00:51:11;0.90;99.90
12130;DHT22;6128;59.340;18.040;2023-03-17T00:53:40;0.90;99.90
12130;DHT22;6128;59.340;18.040;2023-03-17T00:56:13;0.90;99.90
12130;DHT22;6128;59.340;18.040;2023-03-17T00:58:41;0.90;99.90
12130;DHT22;6128;59.340;18.040;2023-03-17T01:01:08;0.90;99.90
12130;DHT22;6128;59.340;18.040;2023-03-17T01:03:36;0.90;99.90
12130;DHT22;6128;59.340;18.040;2023-03-17T01:06:05;0.90;99.90
12130;DHT22;6128;59.340;18.040;2023-03-17T01:08:36;0.90;99.90
12130;DHT22;6128;59.340;18.040;2023-03-17T01:11:04;0.90;99.90
12130;DHT22;6128;59.340;18.040;2023-03-17T01:13:32;0.90;99.90
12130;DHT22;6128;59.340;18.040;2023-03-17T01:16:00;1.00;99.90
12130;DHT22;6128;59.340;18.040;2023-03-17T01:18:27;1.00;99.90
12130;DHT22;6128;59.340;18.040;2023-03-17T01:20:54;1.00;99.90
12130;DHT22;6128;59.340;18.040;2023-03-17T01:23:21;1.00;99.90
12130;DHT22;6128;59.340;18.040;2023-03-17T01:25:48;1.00;99.90
12130;DHT22;6128;59.340;18.040;2023-03-17T01:28:17;1.00;99.90
12130;DHT22;6128;59.340;18.040;2023-03-17T01:30:46;1.00;99.90
12130;DHT22;6128;59.340;18.040;2023-03-17T01:33:15;1.00;99.90
12130;DHT22;6128;59.340;18.040;2023-03-17T01:35:42;1.00;99.90
12130;DHT22;6128;59.340;18.040;2023-03-17T01:38:10;1.00;99.90
12130;DHT22;6128;59.340;18.040;2023-03-17T01:40:43;1.00;99.90
12130;DHT22;6128;59.340;18.040;2023-03-17T01:43:19;1.00;99.90
12130;DHT22;6128;59.340;18.040;2023-03-17T01:46:17;1.00;99.90
12130;DHT22;6128;59.340;18.040;2023-03-17T01:48:51;1.00;99.90
12130;DHT22;6128;59.340;18.040;2023-03-17T01:51:23;1.00;99.90
12130;DHT22;6128;59.340;18.040;2023-03-17T01:53:54;1.00;99.90
12130;DHT22;6128;59.340;18.040;2023-03-17T01:56:23;1.00;99.90
12130;DHT22;6128;59.340;18.040;2023-03-17T01:58:52;1.00;99.90
12130;DHT22;6128;59.340;18.040;2023-03-17T02:01:25;0.90;99.90
12130;DHT22;6128;59.340;18.040;2023-03-17T02:03:54;0.90;99.90
12130;DHT22;6128;59.340;18.040;2023-03-17T02:06:21;0.90;99.90
12130;DHT22;6128;59.340;18.040;2023-03-17T02:08:48;0.80;99.90
12130;DHT22;6128;59.340;18.040;2023-03-17T02:11:16;0.80;99.90
12130;DHT22;6128;59.340;18.040;2023-03-17T02:13:44;0.80;99.90
12130;DHT22;6128;59.340;18.040;2023-03-17T02:16:14;0.80;99.90
12130;DHT22;6128;59.340;18.040;2023-03-17T02:18:43;0.80;99.90
12130;DHT22;6128;59.340;18.040;2023-03-17T02:21:37;0.70;99.90
12130;DHT22;6128;59.340;18.040;2023-03-17T02:24:09;0.70;99.90
12130;DHT22;6128;59.340;18.040;2023-03-17T02:26:38;0.70;99.90
12130;DHT22;6128;59.340;18.040;2023-03-17T02:29:06;0.70;99.90
12130;DHT22;6128;59.340;18.040;2023-03-17T02:31:33;0.70;99.90
12130;DHT22;6128;59.340;18.040;2023-03-17T02:34:01;0.70;99.90
12130;DHT22;6128;59.340;18.040;2023-03-17T02:36:28;0.70;99.90
12130;DHT22;6128;59.340;18.040;2023-03-17T02:38:56;0.70;99.90
12130;DHT22;6128;59.340;18.040;2023-03-17T02:41:24;0.80;99.90
12130;DHT22;6128;59.340;18.040;2023-03-17T02:43:51;0.80;99.90
12130;DHT22;6128;59.340;18.040;2023-03-17T02:46:18;0.70;99.90
12130;DHT22;6128;59.340;18.040;2023-03-17T02:48:45;0.70;99.90
12130;DHT22;6128;59.340;18.040;2023-03-17T02:51:15;0.70;99.90
12130;DHT22;6128;59.340;18.040;2023-03-17T02:53:42;0.70;99.90
12130;DHT22;6128;59.340;18.040;2023-03-17T02:56:11;0.70;99.90
12130;DHT22;6128;59.340;18.040;2023-03-17T02:58:38;0.70;99.90
12130;DHT22;6128;59.340;18.040;2023-03-17T03:01:05;0.60;99.90
12130;DHT22;6128;59.340;18.040;2023-03-17T03:03:33;0.60;99.90
12130;DHT22;6128;59.340;18.040;2023-03-17T03:06:00;0.60;99.90
12130;DHT22;6128;59.340;18.040;2023-03-17T03:08:28;0.60;99.90
12130;DHT22;6128;59.340;18.040;2023-03-17T03:10:56;0.60;99.90
12130;DHT22;6128;59.340;18.040;2023-03-17T03:13:26;0.60;99.90
12130;DHT22;6128;59.340;18.040;2023-03-17T03:15:53;0.60;99.90
12130;DHT22;6128;59.340;18.040;2023-03-17T03:18:21;0.60;99.90
12130;DHT22;6128;59.340;18.040;2023-03-17T03:20:48;0.60;99.90
12130;DHT22;6128;59.340;18.040;2023-03-17T03:23:15;0.60;99.90
12130;DHT22;6128;59.340;18.040;2023-03-17T03:25:42;0.60;99.90
12130;DHT22;6128;59.340;18.040;2023-03-17T03:28:10;0.60;99.90
12130;DHT22;6128;59.340;18.040;2023-03-17T03:30:39;0.60;99.90
12130;DHT22;6128;59.340;18.040;2023-03-17T03:33:06;0.50;99.90
12130;DHT22;6128;59.340;18.040;2023-03-17T03:35:33;0.50;99.90
12130;DHT22;6128;59.340;18.040;2023-03-17T03:38:01;0.50;99.90
12130;DHT22;6128;59.340;18.040;2023-03-17T03:40:28;0.50;99.90
12130;DHT22;6128;59.340;18.040;2023-03-17T03:42:55;0.50;99.90
12130;DHT22;6128;59.340;18.040;2023-03-17T03:45:22;0.50;99.90
12130;DHT22;6128;59.340;18.040;2023-03-17T03:47:52;0.50;99.90
12130;DHT22;6128;59.340;18.040;2023-03-17T03:50:19;0.50;99.90
12130;DHT22;6128;59.340;18.040;2023-03-17T03:52:46;0.50;99.90
12130;DHT22;6128;59.340;18.040;2023-03-17T03:55:13;0.50;99.90
12130;DHT22;6128;59.340;18.040;2023-03-17T03:57:40;0.40;99.90
12130;DHT22;6128;59.340;18.040;2023-03-17T04:00:09;0.40;99.90
12130;DHT22;6128;59.340;18.040;2023-03-17T04:02:38;0.40;99.90
12130;DHT22;6128;59.340;18.040;2023-03-17T04:05:07;0.40;99.90
12130;DHT22;6128;59.340;18.040;2023-03-17T04:07:35;0.40;99.90
12130;DHT22;6128;59.340;18.040;2023-03-17T04:10:03;0.40;99.90
12130;DHT22;6128;59.340;18.040;2023-03-17T04:12:30;0.40;99.90
12130;DHT22;6128;59.340;18.040;2023-03-17T04:14:57;0.40;99.90
12130;DHT22;6128;59.340;18.040;2023-03-17T04:17:24;0.40;99.90
12130;DHT22;6128;59.340;18.040;2023-03-17T04:19:52;0.40;99.90
12130;DHT22;6128;59.340;18.040;2023-03-17T04:22:20;0.40;99.90
12130;DHT22;6128;59.340;18.040;2023-03-17T04:24:50;0.40;99.90
12130;DHT22;6128;59.340;18.040;2023-03-17T04:27:17;0.40;99.90
12130;DHT22;6128;59.340;18.040;2023-03-17T04:29:44;0.40;99.90
12130;DHT22;6128;59.340;18.040;2023-03-17T04:32:13;0.40;99.90
12130;DHT22;6128;59.340;18.040;2023-03-17T04:34:41;0.40;99.90
12130;DHT22;6128;59.340;18.040;2023-03-17T04:37:09;0.40;99.90
12130;DHT22;6128;59.340;18.040;2023-03-17T04:39:38;0.40;99.90
12130;DHT22;6128;59.340;18.040;2023-03-17T04:42:07;0.40;99.90
12130;DHT22;6128;59.340;18.040;2023-03-17T04:44:34;0.40;99.90
12130;DHT22;6128;59.340;18.040;2023-03-17T04:47:01;0.40;99.90
12130;DHT22;6128;59.340;18.040;2023-03-17T04:49:28;0.40;99.90
12130;DHT22;6128;59.340;18.040;2023-03-17T04:51:55;0.40;99.90
12130;DHT22;6128;59.340;18.040;2023-03-17T04:54:23;0.40;99.90
12130;DHT22;6128;59.340;18.040;2023-03-17T04:56:51;0.40;99.90
12130;DHT22;6128;59.340;18.040;2023-03-17T04:59:19;0.50;99.90
12130;DHT22;6128;59.340;18.040;2023-03-17T05:01:46;0.50;99.90
12130;DHT22;6128;59.340;18.040;2023-03-17T05:04:13;0.50;99.90
12130;DHT22;6128;59.340;18.040;2023-03-17T05:06:40;0.50;99.90
12130;DHT22;6128;59.340;18.040;2023-03-17T05:09:08;0.60;99.90
12130;DHT22;6128;59.340;18.040;2023-03-17T05:11:35;0.60;99.90
12130;DHT22;6128;59.340;18.040;2023-03-17T05:14:04;0.60;99.90
12130;DHT22;6128;59.340;18.040;2023-03-17T05:16:31;0.60;99.90
12130;DHT22;6128;59.340;18.040;2023-03-17T05:18:58;0.60;99.90
12130;DHT22;6128;59.340;18.040;2023-03-17T05:21:25;0.60;99.90
12130;DHT22;6128;59.340;18.040;2023-03-17T05:23:52;0.60;99.90
12130;DHT22;6128;59.340;18.040;2023-03-17T05:26:20;0.60;99.90
12130;DHT22;6128;59.340;18.040;2023-03-17T05:28:47;0.60;99.90
12130;DHT22;6128;59.340;18.040;2023-03-17T05:31:16;0.70;99.90
12130;DHT22;6128;59.340;18.040;2023-03-17T05:33:44;0.70;99.90
12130;DHT22;6128;59.340;18.040;2023-03-17T05:36:14;0.80;99.90
12130;DHT22;6128;59.340;18.040;2023-03-17T05:38:41;0.70;99.90
12130;DHT22;6128;59.340;18.040;2023-03-17T05:41:08;0.80;99.90
12130;DHT22;6128;59.340;18.040;2023-03-17T05:43:36;0.80;99.90
12130;DHT22;6128;59.340;18.040;2023-03-17T05:46:04;0.80;99.90
12130;DHT22;6128;59.340;18.040;2023-03-17T05:48:33;0.90;99.90
12130;DHT22;6128;59.340;18.040;2023-03-17T05:51:03;0.90;99.90
12130;DHT22;6128;59.340;18.040;2023-03-17T05:53:31;1.00;99.90
12130;DHT22;6128;59.340;18.040;2023-03-17T05:55:58;1.00;99.90
12130;DHT22;6128;59.340;18.040;2023-03-17T05:58:25;1.10;99.90
12130;DHT22;6128;59.340;18.040;2023-03-17T06:00:53;1.10;99.90
12130;DHT22;6128;59.340;18.040;2023-03-17T06:03:20;1.20;99.90
12130;DHT22;6128;59.340;18.040;2023-03-17T06:05:49;1.20;99.90
12130;DHT22;6128;59.340;18.040;2023-03-17T06:08:16;1.30;99.90
12130;DHT22;6128;59.340;18.040;2023-03-17T06:10:44;1.40;99.90
12130;DHT22;6128;59.340;18.040;2023-03-17T06:13:11;1.50;99.90
12130;DHT22;6128;59.340;18.040;2023-03-17T06:15:38;1.50;99.90
12130;DHT22;6128;59.340;18.040;2023-03-17T06:18:06;1.60;99.90
12130;DHT22;6128;59.340;18.040;2023-03-17T06:20:34;1.60;99.90
12130;DHT22;6128;59.340;18.040;2023-03-17T06:23:03;1.60;99.90
12130;DHT22;6128;59.340;18.040;2023-03-17T06:25:32;1.70;99.90
12130;DHT22;6128;59.340;18.040;2023-03-17T06:28:02;1.70;99.90
12130;DHT22;6128;59.340;18.040;2023-03-17T06:30:30;1.80;99.90
12130;DHT22;6128;59.340;18.040;2023-03-17T06:32:58;1.80;99.90
12130;DHT22;6128;59.340;18.040;2023-03-17T06:35:26;1.80;99.90
12130;DHT22;6128;59.340;18.040;2023-03-17T06:37:53;1.90;99.90
12130;DHT22;6128;59.340;18.040;2023-03-17T06:40:22;1.90;99.90
12130;DHT22;6128;59.340;18.040;2023-03-17T06:42:51;1.90;99.90
12130;DHT22;6128;59.340;18.040;2023-03-17T06:45:18;1.90;99.90
12130;DHT22;6128;59.340;18.040;2023-03-17T06:47:45;1.90;99.90
12130;DHT22;6128;59.340;18.040;2023-03-17T06:50:12;2.00;99.90
12130;DHT22;6128;59.340;18.040;2023-03-17T06:52:40;2.00;99.90
12130;DHT22;6128;59.340;18.040;2023-03-17T06:55:08;2.10;99.90
12130;DHT22;6128;59.340;18.040;2023-03-17T06:57:36;2.10;99.90
12130;DHT22;6128;59.340;18.040;2023-03-17T07:00:05;2.10;99.90
12130;DHT22;6128;59.340;18.040;2023-03-17T07:02:32;2.10;99.90
12130;DHT22;6128;59.340;18.040;2023-03-17T07:05:00;2.20;99.90
12130;DHT22;6128;59.340;18.040;2023-03-17T07:07:28;2.20;99.90
12130;DHT22;6128;59.340;18.040;2023-03-17T07:09:56;2.20;99.90
12130;DHT22;6128;59.340;18.040;2023-03-17T07:12:23;2.20;99.90
12130;DHT22;6128;59.340;18.040;2023-03-17T07:14:52;2.20;99.90
12130;DHT22;6128;59.340;18.040;2023-03-17T07:17:19;2.20;99.90
12130;DHT22;6128;59.340;18.040;2023-03-17T07:19:49;2.20;99.90
12130;DHT22;6128;59.340;18.040;2023-03-17T07:22:17;2.20;99.90
12130;DHT22;6128;59.340;18.040;2023-03-17T07:24:44;2.20;99.90
12130;DHT22;6128;59.340;18.040;2023-03-17T07:27:13;2.20;99.90
12130;DHT22;6128;59.340;18.040;2023-03-17T07:29:41;2.20;99.90
12130;DHT22;6128;59.340;18.040;2023-03-17T07:32:10;2.20;99.90
12130;DHT22;6128;59.340;18.040;2023-03-17T07:34:37;2.20;99.90
12130;DHT22;6128;59.340;18.040;2023-03-17T07:37:05;2.30;99.90
12130;DHT22;6128;59.340;18.040;2023-03-17T07:39:32;2.30;99.90
12130;DHT22;6128;59.340;18.040;2023-03-17T07:41:59;2.40;99.90
12130;DHT22;6128;59.340;18.040;2023-03-17T07:44:28;2.40;99.90
12130;DHT22;6128;59.340;18.040;2023-03-17T07:46:55;2.50;99.90
12130;DHT22;6128;59.340;18.040;2023-03-17T07:49:24;2.50;99.90
12130;DHT22;6128;59.340;18.040;2023-03-17T07:51:51;2.60;99.90
12130;DHT22;6128;59.340;18.040;2023-03-17T07:54:18;2.60;99.90
12130;DHT22;6128;59.340;18.040;2023-03-17T07:56:46;2.60;99.90
12130;DHT22;6128;59.340;18.040;2023-03-17T07:59:13;2.60;99.90
12130;DHT22;6128;59.340;18.040;2023-03-17T08:01:40;2.60;99.90
12130;DHT22;6128;59.340;18.040;2023-03-17T08:04:07;2.60;99.90
12130;DHT22;6128;59.340;18.040;2023-03-17T08:06:38;2.70;99.90
12130;DHT22;6128;59.340;18.040;2023-03-17T08:09:07;2.80;99.90
12130;DHT22;6128;59.340;18.040;2023-03-17T08:11:35;2.90;99.90
12130;DHT22;6128;59.340;18.040;2023-03-17T08:14:03;3.10;99.90
12130;DHT22;6128;59.340;18.040;2023-03-17T08:16:31;3.20;99.90
12130;DHT22;6128;59.340;18.040;2023-03-17T08:18:59;3.30;99.90
12130;DHT22;6128;59.340;18.040;2023-03-17T08:21:28;3.40;99.90
12130;DHT22;6128;59.340;18.040;2023-03-17T08:23:57;3.50;99.90
12130;DHT22;6128;59.340;18.040;2023-03-17T08:26:24;3.60;99.90
12130;DHT22;6128;59.340;18.040;2023-03-17T08:28:51;3.60;99.90
12130;DHT22;6128;59.340;18.040;2023-03-17T08:31:20;3.60;99.90
12130;DHT22;6128;59.340;18.040;2023-03-17T08:33:49;3.60;99.90
12130;DHT22;6128;59.340;18.040;2023-03-17T08:36:19;3.70;99.90
12130;DHT22;6128;59.340;18.040;2023-03-17T08:38:49;3.60;99.90
12130;DHT22;6128;59.340;18.040;2023-03-17T08:41:19;3.70;99.90
12130;DHT22;6128;59.340;18.040;2023-03-17T08:43:48;3.80;99.90
12130;DHT22;6128;59.340;18.040;2023-03-17T08:46:18;3.80;99.90
12130;DHT22;6128;59.340;18.040;2023-03-17T08:48:47;3.80;99.90
12130;DHT22;6128;59.340;18.040;2023-03-17T08:51:14;3.90;99.90
12130;DHT22;6128;59.340;18.040;2023-03-17T08:53:42;3.90;99.90
12130;DHT22;6128;59.340;18.040;2023-03-17T08:56:13;3.90;99.90
12130;DHT22;6128;59.340;18.040;2023-03-17T08:58:43;3.80;99.90
12130;DHT22;6128;59.340;18.040;2023-03-17T09:01:10;3.80;99.90
12130;DHT22;6128;59.340;18.040;2023-03-17T09:03:38;3.70;99.90
12130;DHT22;6128;59.340;18.040;2023-03-17T09:06:07;3.60;99.90
12130;DHT22;6128;59.340;18.040;2023-03-17T09:08:40;3.60;99.90
12130;DHT22;6128;59.340;18.040;2023-03-17T09:11:10;3.70;99.90
12130;DHT22;6128;59.340;18.040;2023-03-17T09:13:39;3.70;99.90
12130;DHT22;6128;59.340;18.040;2023-03-17T09:16:07;3.60;99.90
12130;DHT22;6128;59.340;18.040;2023-03-17T09:18:35;3.60;99.90
12130;DHT22;6128;59.340;18.040;2023-03-17T09:21:02;3.50;99.90
12130;DHT22;6128;59.340;18.040;2023-03-17T09:23:30;3.50;99.90
12130;DHT22;6128;59.340;18.040;2023-03-17T09:25:57;3.50;99.90
12130;DHT22;6128;59.340;18.040;2023-03-17T09:28:24;3.50;99.90
12130;DHT22;6128;59.340;18.040;2023-03-17T09:30:56;3.50;99.90
12130;DHT22;6128;59.340;18.040;2023-03-17T09:33:25;3.50;99.90
12130;DHT22;6128;59.340;18.040;2023-03-17T09:35:53;3.60;99.90
12130;DHT22;6128;59.340;18.040;2023-03-17T09:38:22;3.60;99.90
12130;DHT22;6128;59.340;18.040;2023-03-17T09:40:54;3.70;99.90
12130;DHT22;6128;59.340;18.040;2023-03-17T09:43:29;3.70;99.90
12130;DHT22;6128;59.340;18.040;2023-03-17T09:46:02;3.80;99.90
12130;DHT22;6128;59.340;18.040;2023-03-17T09:48:49;3.80;99.90
12130;DHT22;6128;59.340;18.040;2023-03-17T09:51:19;3.90;99.90
12130;DHT22;6128;59.340;18.040;2023-03-17T09:53:51;3.90;99.90
12130;DHT22;6128;59.340;18.040;2023-03-17T09:56:21;3.90;99.90
12130;DHT22;6128;59.340;18.040;2023-03-17T09:58:52;4.00;99.90
12130;DHT22;6128;59.340;18.040;2023-03-17T10:01:21;4.00;99.90
12130;DHT22;6128;59.340;18.040;2023-03-17T10:03:52;4.10;99.90
12130;DHT22;6128;59.340;18.040;2023-03-17T10:06:40;4.20;99.90
12130;DHT22;6128;59.340;18.040;2023-03-17T10:09:17;4.30;99.90
12130;DHT22;6128;59.340;18.040;2023-03-17T10:11:52;4.30;99.90
12130;DHT22;6128;59.340;18.040;2023-03-17T10:14:37;4.40;99.90
12130;DHT22;6128;59.340;18.040;2023-03-17T10:17:13;4.50;99.90
12130;DHT22;6128;59.340;18.040;2023-03-17T10:19:45;4.50;99.90
12130;DHT22;6128;59.340;18.040;2023-03-17T10:22:18;4.50;99.90
12130;DHT22;6128;59.340;18.040;2023-03-17T10:24:50;4.50;99.90
12130;DHT22;6128;59.340;18.040;2023-03-17T10:27:18;4.50;99.90
12130;DHT22;6128;59.340;18.040;2023-03-17T10:29:46;4.50;99.90
12130;DHT22;6128;59.340;18.040;2023-03-17T10:32:14;4.40;99.90
12130;DHT22;6128;59.340;18.040;2023-03-17T10:34:43;4.40;99.90
12130;DHT22;6128;59.340;18.040;2023-03-17T10:37:16;4.30;99.90
12130;DHT22;6128;59.340;18.040;2023-03-17T10:39:45;4.20;99.90
12130;DHT22;6128;59.340;18.040;2023-03-17T10:42:21;4.20;99.90
12130;DHT22;6128;59.340;18.040;2023-03-17T10:44:51;4.20;99.90
12130;DHT22;6128;59.340;18.040;2023-03-17T10:47:24;4.20;99.90
12130;DHT22;6128;59.340;18.040;2023-03-17T10:49:53;4.20;99.90
12130;DHT22;6128;59.340;18.040;2023-03-17T10:52:24;4.20;99.90
12130;DHT22;6128;59.340;18.040;2023-03-17T10:54:53;4.20;99.90
12130;DHT22;6128;59.340;18.040;2023-03-17T10:57:20;4.20;99.90
12130;DHT22;6128;59.340;18.040;2023-03-17T10:59:50;4.30;99.90
12130;DHT22;6128;59.340;18.040;2023-03-17T11:02:23;4.30;99.90
12130;DHT22;6128;59.340;18.040;2023-03-17T11:04:58;4.40;99.90
12130;DHT22;6128;59.340;18.040;2023-03-17T11:07:28;4.50;99.90
12130;DHT22;6128;59.340;18.040;2023-03-17T11:10:01;4.50;99.90
12130;DHT22;6128;59.340;18.040;2023-03-17T11:12:34;4.60;99.90
12130;DHT22;6128;59.340;18.040;2023-03-17T11:15:03;4.60;99.90
12130;DHT22;6128;59.340;18.040;2023-03-17T11:17:41;4.60;99.90
12130;DHT22;6128;59.340;18.040;2023-03-17T11:20:23;4.50;99.90
12130;DHT22;6128;59.340;18.040;2023-03-17T11:22:58;4.50;99.90
12130;DHT22;6128;59.340;18.040;2023-03-17T11:25:27;4.50;99.90
12130;DHT22;6128;59.340;18.040;2023-03-17T11:28:00;4.40;99.90
12130;DHT22;6128;59.340;18.040;2023-03-17T11:30:36;4.40;99.90
12130;DHT22;6128;59.340;18.040;2023-03-17T11:33:10;4.50;99.90
12130;DHT22;6128;59.340;18.040;2023-03-17T11:35:48;4.50;99.90
12130;DHT22;6128;59.340;18.040;2023-03-17T11:38:22;4.50;99.90
12130;DHT22;6128;59.340;18.040;2023-03-17T11:41:07;4.50;99.90
12130;DHT22;6128;59.340;18.040;2023-03-17T11:43:43;4.50;99.90
12130;DHT22;6128;59.340;18.040;2023-03-17T11:46:17;4.40;99.90
12130;DHT22;6128;59.340;18.040;2023-03-17T11:48:51;4.50;99.90
12130;DHT22;6128;59.340;18.040;2023-03-17T11:51:26;4.40;99.90
12130;DHT22;6128;59.340;18.040;2023-03-17T11:54:11;4.40;99.90
12130;DHT22;6128;59.340;18.040;2023-03-17T11:56:45;4.40;99.90
12130;DHT22;6128;59.340;18.040;2023-03-17T11:59:19;4.30;99.90
12130;DHT22;6128;59.340;18.040;2023-03-17T12:01:55;4.40;99.90
12130;DHT22;6128;59.340;18.040;2023-03-17T12:04:27;4.30;99.90
12130;DHT22;6128;59.340;18.040;2023-03-17T12:07:03;4.30;99.90
12130;DHT22;6128;59.340;18.040;2023-03-17T12:09:39;4.30;99.90
12130;DHT22;6128;59.340;18.040;2023-03-17T12:12:11;4.30;99.90
12130;DHT22;6128;59.340;18.040;2023-03-17T12:14:43;4.30;99.90
12130;DHT22;6128;59.340;18.040;2023-03-17T12:17:18;4.30;99.90
12130;DHT22;6128;59.340;18.040;2023-03-17T12:20:02;4.30;99.90
12130;DHT22;6128;59.340;18.040;2023-03-17T12:22:38;4.30;99.90
12130;DHT22;6128;59.340;18.040;2023-03-17T12:25:13;4.30;99.90
12130;DHT22;6128;59.340;18.040;2023-03-17T12:27:48;4.30;99.90
12130;DHT22;6128;59.340;18.040;2023-03-17T12:30:22;4.30;99.90
12130;DHT22;6128;59.340;18.040;2023-03-17T12:33:05;4.30;99.90
12130;DHT22;6128;59.340;18.040;2023-03-17T12:35:39;4.30;99.90
12130;DHT22;6128;59.340;18.040;2023-03-17T12:38:12;4.30;99.90
12130;DHT22;6128;59.340;18.040;2023-03-17T12:41:08;4.20;99.90
12130;DHT22;6128;59.340;18.040;2023-03-17T12:43:47;4.20;99.90
12130;DHT22;6128;59.340;18.040;2023-03-17T12:46:40;4.30;99.90
12130;DHT22;6128;59.340;18.040;2023-03-17T12:49:35;4.40;99.90
12130;DHT22;6128;59.340;18.040;2023-03-17T12:52:19;4.50;99.90
12130;DHT22;6128;59.340;18.040;2023-03-17T12:54:51;4.50;99.90
12130;DHT22;6128;59.340;18.040;2023-03-17T12:57:20;4.50;99.90
12130;DHT22;6128;59.340;18.040;2023-03-17T12:59:56;4.50;99.90
12130;DHT22;6128;59.340;18.040;2023-03-17T13:02:34;4.40;99.90
12130;DHT22;6128;59.340;18.040;2023-03-17T13:05:07;4.30;99.90
12130;DHT22;6128;59.340;18.040;2023-03-17T13:07:39;4.30;99.90
12130;DHT22;6128;59.340;18.040;2023-03-17T13:10:36;4.30;99.90
12130;DHT22;6128;59.340;18.040;2023-03-17T13:13:38;4.30;99.90
12130;DHT22;6128;59.340;18.040;2023-03-17T13:16:26;4.20;99.90
12130;DHT22;6128;59.340;18.040;2023-03-17T13:19:16;4.30;99.90
12130;DHT22;6128;59.340;18.040;2023-03-17T13:21:46;4.30;99.90
12130;DHT22;6128;59.340;18.040;2023-03-17T13:24:42;4.30;99.90
12130;DHT22;6128;59.340;18.040;2023-03-17T13:27:14;4.20;99.90
12130;DHT22;6128;59.340;18.040;2023-03-17T13:33:17;4.10;99.90
12130;DHT22;6128;59.340;18.040;2023-03-17T13:36:03;4.10;99.90
12130;DHT22;6128;59.340;18.040;2023-03-17T13:38:43;4.10;99.90
12130;DHT22;6128;59.340;18.040;2023-03-17T13:41:25;4.00;99.90
12130;DHT22;6128;59.340;18.040;2023-03-17T13:44:07;4.00;99.90
12130;DHT22;6128;59.340;18.040;2023-03-17T13:46:42;4.00;99.90
12130;DHT22;6128;59.340;18.040;2023-03-17T13:49:21;4.00;99.90
12130;DHT22;6128;59.340;18.040;2023-03-17T13:51:51;4.00;99.90
12130;DHT22;6128;59.340;18.040;2023-03-17T13:54:28;4.00;99.90
12130;DHT22;6128;59.340;18.040;2023-03-17T13:56:57;4.00;99.90
12130;DHT22;6128;59.340;18.040;2023-03-17T13:59:34;4.00;99.90
12130;DHT22;6128;59.340;18.040;2023-03-17T14:02:20;4.00;99.90
12130;DHT22;6128;59.340;18.040;2023-03-17T14:04:53;4.00;99.90
12130;DHT22;6128;59.340;18.040;2023-03-17T14:07:24;4.00;99.90
12130;DHT22;6128;59.340;18.040;2023-03-17T14:09:57;4.00;99.90
12130;DHT22;6128;59.340;18.040;2023-03-17T14:12:30;3.90;99.90
12130;DHT22;6128;59.340;18.040;2023-03-17T14:15:04;3.80;99.90
12130;DHT22;6128;59.340;18.040;2023-03-17T14:17:39;3.70;99.90
12130;DHT22;6128;59.340;18.040;2023-03-17T14:20:20;3.70;99.90
12130;DHT22;6128;59.340;18.040;2023-03-17T14:22:55;3.70;99.90
12130;DHT22;6128;59.340;18.040;2023-03-17T14:25:24;3.70;99.90
12130;DHT22;6128;59.340;18.040;2023-03-17T14:27:55;3.70;99.90
12130;DHT22;6128;59.340;18.040;2023-03-17T14:30:24;3.60;99.90
12130;DHT22;6128;59.340;18.040;2023-03-17T14:32:58;3.60;99.90
12130;DHT22;6128;59.340;18.040;2023-03-17T14:35:30;3.60;99.90
12130;DHT22;6128;59.340;18.040;2023-03-17T14:37:59;3.60;99.90
12130;DHT22;6128;59.340;18.040;2023-03-17T14:40:28;3.60;99.90
12130;DHT22;6128;59.340;18.040;2023-03-17T14:42:57;3.60;99.90
12130;DHT22;6128;59.340;18.040;2023-03-17T14:45:29;3.60;99.90
12130;DHT22;6128;59.340;18.040;2023-03-17T14:48:04;3.50;99.90
12130;DHT22;6128;59.340;18.040;2023-03-17T14:50:33;3.50;99.90
12130;DHT22;6128;59.340;18.040;2023-03-17T14:53:00;3.40;99.90
12130;DHT22;6128;59.340;18.040;2023-03-17T14:55:33;3.40;99.90
12130;DHT22;6128;59.340;18.040;2023-03-17T14:58:06;3.50;99.90
12130;DHT22;6128;59.340;18.040;2023-03-17T15:00:36;3.40;99.90
12130;DHT22;6128;59.340;18.040;2023-03-17T15:03:15;3.40;99.90
12130;DHT22;6128;59.340;18.040;2023-03-17T15:05:46;3.40;99.90
12130;DHT22;6128;59.340;18.040;2023-03-17T15:08:39;3.40;99.90
12130;DHT22;6128;59.340;18.040;2023-03-17T15:11:13;3.40;99.90
12130;DHT22;6128;59.340;18.040;2023-03-17T15:13:42;3.40;99.90
12130;DHT22;6128;59.340;18.040;2023-03-17T15:16:17;3.40;99.90
12130;DHT22;6128;59.340;18.040;2023-03-17T15:18:47;3.40;99.90
12130;DHT22;6128;59.340;18.040;2023-03-17T15:21:31;3.40;99.90
12130;DHT22;6128;59.340;18.040;2023-03-17T15:24:18;3.40;99.90
12130;DHT22;6128;59.340;18.040;2023-03-17T15:26:47;3.40;99.90
12130;DHT22;6128;59.340;18.040;2023-03-17T15:29:15;3.40;99.90
12130;DHT22;6128;59.340;18.040;2023-03-17T15:31:42;3.40;99.90
12130;DHT22;6128;59.340;18.040;2023-03-17T15:34:11;3.40;99.90
12130;DHT22;6128;59.340;18.040;2023-03-17T15:36:40;3.40;99.90
12130;DHT22;6128;59.340;18.040;2023-03-17T15:39:12;3.40;99.90
12130;DHT22;6128;59.340;18.040;2023-03-17T15:41:39;3.30;99.90
12130;DHT22;6128;59.340;18.040;2023-03-17T15:44:06;3.30;99.90
12130;DHT22;6128;59.340;18.040;2023-03-17T15:46:33;3.30;99.90
12130;DHT22;6128;59.340;18.040;2023-03-17T15:49:04;3.30;99.90
12130;DHT22;6128;59.340;18.040;2023-03-17T15:51:31;3.20;99.90
12130;DHT22;6128;59.340;18.040;2023-03-17T15:54:00;3.20;99.90
12130;DHT22;6128;59.340;18.040;2023-03-17T15:56:28;3.20;99.90
12130;DHT22;6128;59.340;18.040;2023-03-17T15:58:55;3.20;99.90
12130;DHT22;6128;59.340;18.040;2023-03-17T16:01:22;3.20;99.90
12130;DHT22;6128;59.340;18.040;2023-03-17T16:03:49;3.20;99.90
12130;DHT22;6128;59.340;18.040;2023-03-17T16:06:18;3.20;99.90
12130;DHT22;6128;59.340;18.040;2023-03-17T16:08:46;3.10;99.90
12130;DHT22;6128;59.340;18.040;2023-03-17T16:11:16;3.20;99.90